Flight Track Log - Related Links

Times and Time Zones

All times are in EDT time to prevent confusion due to time zone crossing. See the AAY800 flight status page for this flight to view local times or setup timezone preferences in your user account.

Time Position Orientation Groundspeed Altitude Reporting Facility
EDT Latitude Longitude Course Direction KTS MPH feet Rate Location/Type
Sun 06:27:54 AM 27.9000 -82.6833 207° Southwest 172 198 800  Level Tampa TRACON
Sun 06:30:05 AM 27.8008 -82.7400 207° Southwest 262 302 5,200 2,281 Climbing Miami Center
Sun 06:31:06 AM 27.8694 -82.7700 339° North 292 336 8,100 2,678 Climbing Miami Center
Sun 06:32:06 AM 27.9494 -82.7672 North 291 335 10,600 1,983 Climbing Miami Center
Sun 06:33:07 AM 28.0442 -82.7603 North 329 379 12,100 1,958 Climbing Miami Center
Sun 06:38:23 AM 28.6281 -82.7195 North 418 481 22,900 1,762 Climbing FlightAware ADS-B
Sun 06:42:22 AM 29.1074 -82.6854 North 449 517 28,400 1,291 Climbing FlightAware ADS-B
Sun 06:43:25 AM 29.2434 -82.6757 North 461 531 29,400 1,110 Climbing FlightAware ADS-B
Sun 06:45:42 AM 29.5081 -82.6567 North 466 536 32,100 1,186 Climbing FlightAware ADS-B
Sun 06:46:12 AM 29.6028 -82.6499 North 466 536 32,700 1,171 Climbing FlightAware ADS-B
Sun 06:47:04 AM 29.7117 -82.6421 North 463 533 33,700 1,174 Climbing FlightAware ADS-B
Sun 06:47:44 AM 29.8007 -82.6356 North 462 532 34,500 1,275 Climbing FlightAware ADS-B
Sun 06:48:24 AM 29.8820 -82.6297 North 456 525 35,400 1,333 Climbing FlightAware ADS-B
Sun 06:49:05 AM 29.9713 -82.6232 North 449 517 36,300 1,037 Climbing FlightAware ADS-B
Sun 06:49:45 AM 30.0538 -82.6172 North 448 516 36,800 538 Climbing FlightAware ADS-B
Sun 06:50:23 AM 30.1317 -82.6115 North 442 509 37,000 148 Climbing FlightAware ADS-B
Sun 06:51:06 AM 30.2186 -82.6052 North 440 506 37,000  Level FlightAware ADS-B
Sun 06:51:45 AM 30.2997 -82.5993 North 437 503 37,000  Level FlightAware ADS-B
Sun 06:52:25 AM 30.3795 -82.5934 North 431 496 37,000  Level FlightAware ADS-B
Sun 06:53:45 AM 30.5382 -82.5819 North 428 493 37,000  Level FlightAware ADS-B
Sun 06:54:25 AM 30.6165 -82.5761 North 430 495 37,000  Level FlightAware ADS-B
Sun 06:55:23 AM 30.7256 -82.5711 North 427 491 37,000  Level Jacksonville Center
Sun 06:56:23 AM 30.8467 -82.5611 North 422 486 37,000  Level Jacksonville Center
Sun 06:57:23 AM 30.9633 -82.5533 North 422 486 37,000  Level Jacksonville Center
Sun 06:58:23 AM 31.0844 -82.5433 North 422 486 37,000  Level Jacksonville Center
Sun 06:59:23 AM 31.1953 -82.5647 351° North 416 479 37,000  Level Jacksonville Center
Sun 07:00:23 AM 31.3144 -82.5936 348° North 423 487 37,000  Level Jacksonville Center
Sun 07:01:23 AM 31.4189 -82.6175 349° North 423 487 37,000  Level Jacksonville Center
Sun 07:02:23 AM 31.5358 -82.6489 347° North 423 487 37,000  Level Jacksonville Center
Sun 07:03:23 AM 31.6506 -82.6803 347° North 423 487 37,000  Level Jacksonville Center
Sun 07:05:39 AM 31.9153 -82.7542 347° North 421 484 37,000  Level Atlanta Center
Sun 07:06:39 AM 32.0325 -82.7869 347° North 421 484 37,000  Level Atlanta Center
Sun 07:07:39 AM 32.1536 -82.7950 357° North 426 490 37,000  Level Atlanta Center
Sun 07:08:39 AM 32.2747 -82.8056 356° North 426 490 37,000  Level Atlanta Center
Sun 07:09:39 AM 32.3939 -82.8164 356° North 426 490 37,000  Level Atlanta Center
Sun 07:10:39 AM 32.5233 -82.8269 356° North 420 483 37,000  Level Atlanta Center
Sun 07:11:39 AM 32.6444 -82.8350 357° North 420 483 37,000  Level Atlanta Center
Sun 07:12:39 AM 32.7636 -82.8433 357° North 426 490 37,000 50 Level Atlanta Center
Sun 07:13:39 AM 32.8828 -82.8564 355° North 426 490 37,100  Climbing Atlanta Center
Sun 07:14:39 AM 33.0017 -82.8647 357° North 426 490 37,000 -50 Descending Atlanta Center
Sun 07:15:39 AM 33.1208 -82.8781 355° North 426 490 37,000  Level Atlanta Center
Sun 07:16:39 AM 33.2400 -82.8864 357° North 426 490 37,000  Level Atlanta Center
Sun 07:17:39 AM 33.3444 -82.8950 356° North 426 490 37,000  Level Atlanta Center
Sun 07:18:39 AM 33.4614 -82.9033 357° North 426 490 37,000  Level Atlanta Center
Sun 07:19:39 AM 33.5803 -82.9117 357° North 426 490 37,000  Level Atlanta Center
Sun 07:20:39 AM 33.6994 -82.9203 357° North 421 484 37,000 140 Level Atlanta Center
Sun 07:26:48 AM 34.4373 -82.9833 356° North 421 484 38,000 149 Climbing FlightAware ADS-B (KDZJ)
Sun 07:27:21 AM 34.5027 -82.9889 356° North 422 486 38,000 91 Level FlightAware ADS-B (KDZJ)
Sun 07:27:54 AM 34.5657 -82.9943 356° North 422 486 38,100 86 Climbing FlightAware ADS-B (KDZJ)
Sun 07:28:31 AM 34.6383 -83.0006 356° North 422 486 38,100  Level FlightAware ADS-B (KDZJ)
Sun 07:29:12 AM 34.7189 -83.0075 356° North 421 484 38,100 -73 Level FlightAware ADS-B (KDZJ)
Sun 07:29:53 AM 34.7975 -83.0142 356° North 420 483 38,000 -79 Descending FlightAware ADS-B (KDZJ)
Sun 07:30:28 AM 34.8669 -83.0201 356° North 421 484 38,000  Level FlightAware ADS-B (KDZJ)
Sun 07:31:16 AM 34.9609 -83.0283 356° North 416 479 38,000  Level FlightAware ADS-B (KDZJ)
Sun 07:31:52 AM 35.0310 -83.0344 356° North 417 480 38,000 60 Level FlightAware ADS-B (KDZJ)
Sun 07:32:56 AM 35.1555 -83.0451 356° North 423 487 38,100  Climbing FlightAware ADS-B (KDZJ)
Sun 07:33:55 AM 35.2717 -83.0552 356° North 420 483 38,000 -67 Descending FlightAware ADS-B (KDZJ)
Sun 07:34:25 AM 35.3289 -83.0602 356° North 419 482 38,000 92 Level FlightAware ADS-B (KDZJ)
Sun 07:35:00 AM 35.3973 -83.0662 356° North 422 486 38,100 423 Climbing FlightAware ADS-B (KDZJ)
Sun 07:35:36 AM 35.4675 -83.0724 356° North 421 484 38,500 485 Climbing FlightAware ADS-B (KDZJ)
Sun 07:36:39 AM 35.5664 -83.0839 356° North 423 487 38,900 244 Climbing Atlanta Center
Sun 07:37:39 AM 35.6853 -83.0928 357° North 423 487 39,000 50 Climbing Atlanta Center
Sun 07:38:39 AM 35.8022 -83.1017 356° North 423 487 39,000  Level Atlanta Center
Sun 07:39:39 AM 35.9192 -83.1131 355° North 423 487 39,000  Level Atlanta Center
Sun 07:40:39 AM 36.0361 -83.1247 355° North 423 487 39,000  Level Atlanta Center
Sun 07:42:54 AM 36.3100 -83.1475 356° North 422 486 39,000  Level Indianapolis Center
Sun 07:43:56 AM 36.4281 -83.1581 356° North 422 486 39,000  Level Indianapolis Center
Sun 07:44:57 AM 36.5450 -83.1681 356° North 421 484 39,000  Level Indianapolis Center
Sun 07:45:58 AM 36.6639 -83.1794 356° North 421 484 39,000  Level Indianapolis Center
Sun 07:46:59 AM 36.7833 -83.1908 356° North 422 486 39,000 49 Level Indianapolis Center
Sun 07:48:00 AM 36.9044 -83.2031 355° North 425 489 39,100 49 Climbing Indianapolis Center
Sun 07:49:01 AM 37.0247 -83.2128 356° North 426 490 39,100 -11 Level Indianapolis Center
Sun 07:57:03 AM 37.9844 -83.2989 356° North 428 493 39,000 -12 Descending FlightAware ADS-B
Sun 07:57:36 AM 38.0459 -83.3046 356° North 429 494 39,000  Level FlightAware ADS-B
Sun 07:58:14 AM 38.1168 -83.3114 356° North 430 495 39,000  Level FlightAware ADS-B
Sun 07:59:03 AM 38.2194 -83.3209 356° North 429 494 39,000 67 Level FlightAware ADS-B
Sun 07:59:44 AM 38.2963 -83.3281 356° North 428 493 39,100  Climbing FlightAware ADS-B
Sun 08:00:30 AM 38.3945 -83.3372 356° North 428 493 39,000 -71 Descending FlightAware ADS-B
Sun 08:01:08 AM 38.4697 -83.3443 356° North 428 493 39,000  Level FlightAware ADS-B
Sun 08:01:43 AM 38.5381 -83.3508 356° North 429 494 39,000 -400 Level FlightAware ADS-B
Sun 08:02:23 AM 38.6180 -83.3583 356° North 426 490 38,500 -833 Descending FlightAware ADS-B
Sun 08:02:55 AM 38.6727 -83.3637 356° North 430 495 38,000 -1,000 Descending FlightAware ADS-B
Sun 08:03:35 AM 38.7620 -83.3723 356° North 436 502 37,300 -973 Descending FlightAware ADS-B
Sun 08:04:09 AM 38.8298 -83.3786 356° North 440 506 36,800 -917 Descending FlightAware ADS-B
Sun 08:04:47 AM 38.9034 -83.3856 356° North 441 507 36,200 -986 Descending FlightAware ADS-B
Sun 08:05:22 AM 38.9787 -83.3927 356° North 444 511 35,600 -1,015 Descending FlightAware ADS-B
Sun 08:05:52 AM 39.0404 -83.3984 356° North 447 514 35,100 -1,000 Descending FlightAware ADS-B
Sun 08:06:22 AM 39.1023 -83.4044 356° North 448 516 34,600 -923 Descending FlightAware ADS-B
Sun 08:06:57 AM 39.1766 -83.4117 356° North 453 521 34,100 -909 Descending FlightAware ADS-B
Sun 08:07:28 AM 39.2409 -83.4180 356° North 457 526 33,600 -1,048 Descending FlightAware ADS-B
Sun 08:08:00 AM 39.3102 -83.4247 356° North 459 528 33,000 -1,048 Descending FlightAware ADS-B
Sun 08:08:31 AM 39.3735 -83.4308 356° North 456 525 32,500 -885 Descending FlightAware ADS-B
Sun 08:09:01 AM 39.4364 -83.4370 356° North 452 520 32,100 -900 Descending FlightAware ADS-B
Sun 08:09:31 AM 39.4990 -83.4431 356° North 448 516 31,600 -1,082 Descending FlightAware ADS-B
Sun 08:10:02 AM 39.5636 -83.4495 356° North 448 516 31,000 -1,026 Descending FlightAware ADS-B
Sun 08:10:47 AM 39.6532 -83.4581 356° North 436 502 30,300 -880 Descending FlightAware ADS-B
Sun 08:11:17 AM 39.7088 -83.4636 356° North 426 490 29,900 -959 Descending FlightAware ADS-B
Sun 08:13:36 AM 39.9828 -83.4905 356° North 413 475 27,600 -959 Descending FlightAware ADS-B
Sun 08:14:06 AM 40.0319 -83.4953 356° North 417 480 27,200 -857 Descending Cleveland Center
Sun 08:15:07 AM 40.1428 -83.5061 356° North 406 467 26,300 -927 Descending Cleveland Center
Sun 08:16:09 AM 40.2531 -83.5178 355° North 400 460 25,300 -1,415 Descending Cleveland Center
Sun 08:17:10 AM 40.3622 -83.5275 356° North 399 459 23,400 -1,623 Descending Cleveland Center
Sun 08:18:11 AM 40.4683 -83.5386 355° North 387 445 22,000 -689 Descending Cleveland Center
Sun 08:19:12 AM 40.5733 -83.5492 356° North 383 441 22,000 -148 Level Cleveland Center
Sun 08:20:13 AM 40.6778 -83.5589 356° North 381 438 21,700 -1,463 Descending Cleveland Center
Sun 08:21:15 AM 40.7850 -83.5714 355° North 382 440 19,000 -2,634 Descending Cleveland Center
Sun 08:22:16 AM 40.9117 -83.5839 356° North 382 440 16,300 -2,508 Descending Cleveland Center
Sun 08:23:17 AM 41.0175 -83.5947 356° North 382 440 13,900 -2,410 Descending Cleveland Center
Sun 08:24:18 AM 41.1181 -83.6058 355° North 380 437 11,400 -1,707 Descending Cleveland Center
Sun 08:25:20 AM 41.2147 -83.6147 356° North 341 392 10,400 -1,366 Descending Cleveland Center
Sun 08:26:21 AM 41.2994 -83.6225 356° North 313 360 8,600 -1,967 Descending Cleveland Center
Sun 08:27:22 AM 41.3797 -83.6242 359° North 295 339 6,400 -1,770 Descending Cleveland Center
Sun 08:28:23 AM 41.4575 -83.6261 359° North 285 328 5,000 -976 Descending Cleveland Center
Sun 08:29:25 AM 41.5247 -83.6258 360° North 249 287 4,400 -829 Descending Cleveland Center
Sun 08:30:26 AM 41.5875 -83.6442 348° North 201 231 3,300 -1,033 Descending Cleveland Center
Sun 08:31:27 AM 41.6186 -83.6986 307° West 194 223 2,300 -878 Descending Cleveland Center
Sun 08:32:29 AM 41.6072 -83.7525 254° West 159 183 1,500 -683 Descending Cleveland Center
Sun 08:33:30 AM 41.5906 -83.7983 244° Southwest 146 168 900 -590 Descending Cleveland Center

Login

Don't have an account? Register now (free) for customized features, flight alerts, and more!